Time;durP1;ratioP1;P1;durP2;ratioP2;P2;SDS_P1;SDS_P2;PMS_P1;PMS_P2;Temp;Humidity;BMP_temperature;BMP_pressure;BME280_temperature;BME280_humidity;BME280_pressure;Samples;Min_cycle;Max_cycle;Signal;HPM_P1;HPM_P2
2021/12/12 00:01:37;;;;;;;;;;;;;;;-144.99;100.00;52696.78;5067995;28;20060;-65
2021/12/12 00:04:11;;;;;;;;;;;;;;;-144.99;100.00;52729.38;5069477;28;19996;-66
2021/12/12 00:06:41;;;;;;;;;;;;;;;-144.99;100.00;52696.78;5083650;28;20007;-65
2021/12/12 00:09:08;;;;;;;;;;;;;;;-144.99;100.00;52633.59;5090480;28;20258;-65
2021/12/12 00:11:35;;;;;;;;;;;;;;;-144.99;100.00;52676.38;5083510;28;19977;-65
2021/12/12 00:14:04;;;;;;;;;;;;;;;-144.99;100.00;52672.31;5081422;28;20048;-66
2021/12/12 00:16:31;;;;;;;;;;;;;;;-144.99;100.00;52668.22;5085694;28;19988;-65
2021/12/12 00:18:58;;;;;;;;;;;;;;;-144.99;100.00;52680.47;4730706;28;9999945;-66
2021/12/12 00:21:25;;;;;;;;;;;;;;;-144.99;100.00;52709.00;5072951;28;19977;-67
2021/12/12 00:23:53;;;;;;;;;;;;;;;-144.99;100.00;52688.63;5068546;28;19997;-68
2021/12/12 00:26:19;;;;;;;;;;;;;;;-144.99;100.00;52664.16;5069556;28;19976;-68
2021/12/12 00:28:46;;;;;;;;;;;;;;;-144.99;100.00;52656.00;5071909;28;20212;-67
2021/12/12 00:31:14;;;;;;;;;;;;;;;-144.99;100.00;52684.53;5101214;22;20070;-60
2021/12/12 00:33:42;;;;;;;;;;;;;;;-144.99;100.00;52674.34;5090175;28;20411;-60
2021/12/12 00:36:08;;;;;;;;;;;;;;;-144.99;100.00;52688.63;5089482;28;19979;-60
2021/12/12 00:38:36;;;;;;;;;;;;;;;-144.99;100.00;52651.94;5089721;28;20008;-60
2021/12/12 00:41:06;;;;;;;;;;;;;;;-144.99;100.00;52651.94;5089451;28;20091;-60
2021/12/12 00:43:34;;;;;;;;;;;;;;;-144.99;100.00;52631.53;5089877;28;20352;-60
2021/12/12 00:46:02;;;;;;;;;;;;;;;-144.99;100.00;52704.94;5084128;28;20417;-61
2021/12/12 00:48:30;;;;;;;;;;;;;;;-144.99;100.00;52651.94;5089461;28;19973;-63
2021/12/12 00:50:57;;;;;;;;;;;;;;;-144.99;100.00;52696.78;5089848;28;19981;-61
2021/12/12 00:53:24;;;;;;;;;;;;;;;-144.99;100.00;52639.69;5089054;28;20012;-63
2021/12/12 00:55:52;;;;;;;;;;;;;;;-144.99;100.00;52692.69;5085566;28;19979;-63
2021/12/12 00:58:20;;;;;;;;;;;;;;;-144.99;100.00;52700.84;5089657;28;20056;-63
2021/12/12 01:00:49;;;;;;;;;;;;;;;-144.99;100.00;52656.00;5089164;28;20008;-63
2021/12/12 01:03:17;;;;;;;;;;;;;;;-144.99;100.00;52668.22;5089074;28;19996;-63
2021/12/12 01:05:46;;;;;;;;;;;;;;;-144.99;100.00;52672.31;5087763;28;19979;-61
2021/12/12 01:08:14;;;;;;;;;;;;;;;-144.99;100.00;52651.94;5088820;28;20034;-61
2021/12/12 01:10:42;;;;;;;;;;;;;;;-144.99;100.00;52680.47;5089089;28;19981;-62
2021/12/12 01:13:09;;;;;;;;;;;;;;;-144.99;100.00;52639.69;5083788;28;19988;-62
2021/12/12 01:15:38;;;;;;;;;;;;;;;-144.99;100.00;52700.84;5088823;28;20451;-61
2021/12/12 01:18:07;;;;;;;;;;;;;;;-144.99;100.00;52688.63;5085159;28;20142;-61
2021/12/12 01:20:37;;;;;;;;;;;;;;;-144.99;100.00;52660.09;5089083;28;19973;-63
2021/12/12 01:23:07;;;;;;;;;;;;;;;-144.99;100.00;52692.69;5088424;28;20969;-62
2021/12/12 01:25:43;;;;;;;;;;;;;;;-144.99;100.00;52688.63;5088373;28;20078;-63
2021/12/12 01:28:09;;;;;;;;;;;;;;;-144.99;100.00;52643.78;5087159;28;20054;-63
2021/12/12 01:30:37;;;;;;;;;;;;;;;-144.99;100.00;52680.47;5088442;28;20049;-63
2021/12/12 01:33:03;;;;;;;;;;;;;;;-144.99;100.00;52656.00;5085594;28;20370;-63
2021/12/12 01:35:30;;;;;;;;;;;;;;;-144.99;100.00;52668.22;5084611;28;20227;-63
2021/12/12 01:40:43;;;;;;;;;;;;;;;-144.99;100.00;52700.84;5088735;28;19994;-63
2021/12/12 01:43:12;;;;;;;;;;;;;;;-144.99;100.00;52709.00;5089139;28;20480;-63
2021/12/12 01:45:44;;;;;;;;;;;;;;;-144.99;100.00;52668.22;5088104;28;19976;-63
2021/12/12 01:48:15;;;;;;;;;;;;;;;-144.99;100.00;52700.84;5086728;28;20492;-62
2021/12/12 01:50:44;;;;;;;;;;;;;;;-144.99;100.00;52680.47;5088641;28;20020;-62
2021/12/12 01:53:12;;;;;;;;;;;;;;;-144.99;100.00;52660.09;5088664;28;20087;-61
2021/12/12 01:55:41;;;;;;;;;;;;;;;-144.99;100.00;52688.63;5088700;28;20063;-62
2021/12/12 01:58:09;;;;;;;;;;;;;;;-144.99;100.00;52664.16;5086653;28;20921;-62
2021/12/12 02:00:38;;;;;;;;;;;;;;;-144.99;100.00;52688.63;5084779;28;20355;-62
2021/12/12 02:03:08;;;;;;;;;;;;;;;-144.99;100.00;52709.00;5089357;28;20036;-61
2021/12/12 02:05:36;;;;;;;;;;;;;;;-144.99;100.00;52688.63;5089032;28;20083;-61
2021/12/12 02:08:06;;;;;;;;;;;;;;;-144.99;100.00;52639.69;5089435;28;20038;-61
2021/12/12 02:10:36;;;;;;;;;;;;;;;-144.99;100.00;52639.69;5086959;28;20449;-61
2021/12/12 02:13:04;;;;;;;;;;;;;;;-144.99;100.00;52651.94;5090863;28;20480;-61
2021/12/12 02:15:32;;;;;;;;;;;;;;;-144.99;100.00;52676.38;5086102;28;19976;-60
2021/12/12 02:17:59;;;;;;;;;;;;;;;-144.99;100.00;52684.53;5092744;28;20061;-61
2021/12/12 02:20:34;;;;;;;;;;;;;;;-144.99;100.00;52656.00;5091164;28;20059;-61
2021/12/12 02:23:12;;;;;;;;;;;;;;;-144.99;100.00;52623.38;5092456;28;19980;-61
2021/12/12 02:36:52;;;;;;;;;;;;;;;-144.99;100.00;52668.22;5092564;28;20018;-60
2021/12/12 02:39:20;;;;;;;;;;;;;;;-144.99;100.00;52674.34;5091852;28;19985;-60
2021/12/12 02:41:49;;;;;;;;;;;;;;;-144.99;100.00;52615.25;5090997;28;20447;-59
2021/12/12 02:44:16;;;;;;;;;;;;;;;-144.99;100.00;52653.97;5092148;28;20002;-59
2021/12/12 02:46:45;;;;;;;;;;;;;;;-144.99;100.00;52668.22;5092625;28;20567;-59
2021/12/12 02:49:25;;;;;;;;;;;;;;;-144.99;100.00;52680.47;5090364;28;20425;-59
2021/12/12 02:51:52;;;;;;;;;;;;;;;-144.99;100.00;52684.53;5092213;28;20245;-59
2021/12/12 02:54:20;;;;;;;;;;;;;;;-144.99;100.00;52664.16;5091433;28;20006;-58
2021/12/12 02:56:50;;;;;;;;;;;;;;;-144.99;100.00;52647.84;5092020;28;20308;-59
2021/12/12 02:59:19;;;;;;;;;;;;;;;-144.99;100.00;52656.00;5089783;28;19980;-62
2021/12/12 03:01:47;;;;;;;;;;;;;;;-144.99;100.00;52690.66;5091484;28;19972;-63
2021/12/12 03:04:13;;;;;;;;;;;;;;;-144.99;100.00;52668.22;5091292;28;19996;-61
2021/12/12 03:06:41;;;;;;;;;;;;;;;-144.99;100.00;52645.81;5091766;28;20423;-60
2021/12/12 03:09:09;;;;;;;;;;;;;;;-144.99;100.00;52706.97;5091106;28;19988;-61
2021/12/12 03:11:37;;;;;;;;;;;;;;;-144.99;100.00;52615.25;5085010;28;20059;-60
2021/12/12 03:14:04;;;;;;;;;;;;;;;-144.99;100.00;52676.38;5090079;28;20388;-62
2021/12/12 03:16:31;;;;;;;;;;;;;;;-144.99;100.00;52670.28;5091392;28;20203;-62
2021/12/12 03:18:57;;;;;;;;;;;;;;;-144.99;100.00;52656.00;5091213;28;19980;-62
2021/12/12 03:21:30;;;;;;;;;;;;;;;-144.99;100.00;52709.00;5090064;28;19972;-62
2021/12/12 03:23:57;;;;;;;;;;;;;;;-144.99;100.00;52647.84;5090218;28;19989;-60
2021/12/12 03:26:24;;;;;;;;;;;;;;;-144.99;100.00;52656.00;5077958;28;19981;-62
2021/12/12 03:28:55;;;;;;;;;;;;;;;-144.99;100.00;52651.94;5091555;28;19980;-62
2021/12/12 03:31:24;;;;;;;;;;;;;;;-144.99;100.00;52631.53;5089746;28;20386;-62
2021/12/12 03:33:51;;;;;;;;;;;;;;;-144.99;100.00;52682.50;5089935;28;19992;-60
2021/12/12 03:36:17;;;;;;;;;;;;;;;-144.99;100.00;52680.47;5091086;28;20023;-60
2021/12/12 03:38:46;;;;;;;;;;;;;;;-144.99;100.00;52674.34;5090716;28;19984;-60
2021/12/12 03:41:16;;;;;;;;;;;;;;;-144.99;100.00;52668.22;5088775;28;20064;-60
2021/12/12 03:43:45;;;;;;;;;;;;;;;-144.99;100.00;52688.63;5090519;28;20036;-60
2021/12/12 03:46:13;;;;;;;;;;;;;;;-144.99;100.00;52647.84;5089536;28;19980;-61
2021/12/12 03:48:40;;;;;;;;;;;;;;;-144.99;100.00;52631.53;5090421;28;20071;-60
2021/12/12 03:51:08;;;;;;;;;;;;;;;-144.99;100.00;52651.94;5090487;28;20083;-61
2021/12/12 03:53:35;;;;;;;;;;;;;;;-144.99;100.00;52635.63;5088287;28;20083;-60
2021/12/12 03:56:01;;;;;;;;;;;;;;;-144.99;100.00;52676.38;5090843;28;20069;-60
2021/12/12 03:58:28;;;;;;;;;;;;;;;-144.99;100.00;52627.47;5090782;28;20329;-61
2021/12/12 04:00:58;;;;;;;;;;;;;;;-144.99;100.00;52664.16;5090504;28;20288;-61
2021/12/12 04:03:26;;;;;;;;;;;;;;;-144.99;100.00;52680.47;5088526;28;19988;-62
2021/12/12 04:05:54;;;;;;;;;;;;;;;-144.99;100.00;52643.78;5090306;28;19987;-62
2021/12/12 04:08:24;;;;;;;;;;;;;;;-144.99;100.00;52627.47;5090062;28;20107;-62
2021/12/12 04:10:51;;;;;;;;;;;;;;;-144.99;100.00;52662.13;5090347;28;20402;-63
2021/12/12 04:13:17;;;;;;;;;;;;;;;-144.99;100.00;52688.63;5090273;28;20005;-63
2021/12/12 04:15:44;;;;;;;;;;;;;;;-144.99;100.00;52651.94;5084657;28;19996;-64
2021/12/12 04:18:10;;;;;;;;;;;;;;;-144.99;100.00;52684.53;5090192;28;19973;-64
2021/12/12 04:20:39;;;;;;;;;;;;;;;-144.99;100.00;52676.38;5089679;28;20037;-63
2021/12/12 04:23:14;;;;;;;;;;;;;;;-144.99;100.00;52696.78;5090580;28;20070;-63
2021/12/12 04:25:40;;;;;;;;;;;;;;;-144.99;100.00;52704.94;5090277;28;19980;-63
2021/12/12 04:28:07;;;;;;;;;;;;;;;-144.99;100.00;52635.63;5090504;28;19987;-63
2021/12/12 04:30:33;;;;;;;;;;;;;;;-144.99;100.00;52672.31;5090902;28;20083;-64
2021/12/12 04:32:59;;;;;;;;;;;;;;;-144.99;100.00;52686.59;5088525;28;20376;-64
2021/12/12 04:35:27;;;;;;;;;;;;;;;-144.99;100.00;52647.84;5088881;28;20014;-64
2021/12/12 04:37:56;;;;;;;;;;;;;;;-144.99;100.00;52660.09;5090037;28;20071;-64
2021/12/12 04:40:24;;;;;;;;;;;;;;;-144.99;100.00;52668.22;5088945;28;19995;-62
2021/12/12 04:42:52;;;;;;;;;;;;;;;-144.99;100.00;52668.22;5089905;28;20063;-62
2021/12/12 04:45:23;;;;;;;;;;;;;;;-144.99;100.00;52658.03;5088537;28;20051;-62
2021/12/12 04:50:38;;;;;;;;;;;;;;;-144.99;100.00;52627.47;5089557;28;19984;-62
2021/12/12 04:53:09;;;;;;;;;;;;;;;-144.99;100.00;52629.50;5089657;28;20024;-61
2021/12/12 04:55:38;;;;;;;;;;;;;;;-144.99;100.00;52647.84;5089809;28;19980;-61
2021/12/12 04:58:07;;;;;;;;;;;;;;;-144.99;100.00;52603.00;5089558;28;19987;-62
2021/12/12 05:00:35;;;;;;;;;;;;;;;-144.99;100.00;52631.53;5089211;28;20075;-61
2021/12/12 05:03:07;;;;;;;;;;;;;;;-144.99;100.00;52647.84;5090058;28;20196;-62
2021/12/12 05:05:37;;;;;;;;;;;;;;;-144.99;100.00;52635.63;5089461;28;19987;-62
2021/12/12 05:08:06;;;;;;;;;;;;;;;-144.99;100.00;52656.00;5089784;28;19985;-62
2021/12/12 05:10:37;;;;;;;;;;;;;;;-144.99;100.00;52623.38;5088825;28;19981;-59
2021/12/12 05:13:08;;;;;;;;;;;;;;;-144.99;100.00;52649.88;5083776;28;19987;-59
2021/12/12 05:15:35;;;;;;;;;;;;;;;-144.99;100.00;52660.09;5088301;28;20063;-59
2021/12/12 05:18:03;;;;;;;;;;;;;;;-144.99;100.00;52627.47;5089233;28;20087;-59
2021/12/12 05:20:31;;;;;;;;;;;;;;;-144.99;100.00;52639.69;5088340;28;20283;-59
2021/12/12 05:23:01;;;;;;;;;;;;;;;-144.99;100.00;52676.38;5089258;28;20214;-59
2021/12/12 05:25:30;;;;;;;;;;;;;;;-144.99;100.00;52639.69;5088739;28;20023;-59
2021/12/12 05:27:59;;;;;;;;;;;;;;;-144.99;100.00;52647.84;5089069;28;19963;-59
2021/12/12 05:30:27;;;;;;;;;;;;;;;-144.99;100.00;52684.53;5089064;28;19987;-59
2021/12/12 05:32:54;;;;;;;;;;;;;;;-144.99;100.00;52651.94;5086848;28;19988;-59
2021/12/12 05:35:22;;;;;;;;;;;;;;;-144.99;100.00;52672.31;5081584;28;19979;-59
2021/12/12 05:37:50;;;;;;;;;;;;;;;-144.99;100.00;52660.09;5088904;28;19979;-61
2021/12/12 05:40:17;;;;;;;;;;;;;;;-144.99;100.00;52653.97;5088555;28;19974;-61
2021/12/12 05:42:44;;;;;;;;;;;;;;;-144.99;100.00;52615.25;5089512;28;20074;-61
2021/12/12 05:45:12;;;;;;;;;;;;;;;-144.99;100.00;52660.09;5078334;28;19996;-60
2021/12/12 05:47:39;;;;;;;;;;;;;;;-144.99;100.00;52633.59;5090587;28;19980;-60
2021/12/12 05:50:08;;;;;;;;;;;;;;;-144.99;100.00;52637.66;5091414;28;19924;-60
2021/12/12 05:52:34;;;;;;;;;;;;;;;-144.99;100.00;52664.16;5092869;28;20006;-60
2021/12/12 05:55:02;;;;;;;;;;;;;;;-144.99;100.00;52643.78;5092218;28;20012;-60
2021/12/12 05:57:30;;;;;;;;;;;;;;;-144.99;100.00;52611.16;5092835;28;20082;-60
2021/12/12 05:59:57;;;;;;;;;;;;;;;-144.99;100.00;52658.03;5092641;28;20038;-61
2021/12/12 06:02:26;;;;;;;;;;;;;;;-144.99;100.00;52647.84;5088671;28;19978;-61
2021/12/12 06:04:54;;;;;;;;;;;;;;;-144.99;100.00;52660.09;5091086;28;19995;-59
2021/12/12 06:07:22;;;;;;;;;;;;;;;-144.99;100.00;52635.63;5092707;28;19976;-59
2021/12/12 06:09:50;;;;;;;;;;;;;;;-144.99;100.00;52619.31;5092042;28;19994;-59
2021/12/12 06:12:19;;;;;;;;;;;;;;;-144.99;100.00;52656.00;5092688;28;20003;-60
2021/12/12 06:14:46;;;;;;;;;;;;;;;-144.99;100.00;52672.31;5086086;28;20436;-59
2021/12/12 06:17:14;;;;;;;;;;;;;;;-144.99;100.00;52615.25;5092739;28;19951;-59
2021/12/12 06:19:42;;;;;;;;;;;;;;;-144.99;100.00;52651.94;5091576;28;20007;-60
2021/12/12 06:22:09;;;;;;;;;;;;;;;-144.99;100.00;52651.94;5084323;28;19976;-60
2021/12/12 06:24:37;;;;;;;;;;;;;;;-144.99;100.00;52645.81;5091448;28;20002;-60
2021/12/12 06:27:05;;;;;;;;;;;;;;;-144.99;100.00;52688.63;5092248;28;19987;-59
2021/12/12 06:29:31;;;;;;;;;;;;;;;-144.99;100.00;52643.78;5091800;28;20344;-60
2021/12/12 06:31:58;;;;;;;;;;;;;;;-144.99;100.00;52627.47;5091995;28;19988;-60
2021/12/12 06:34:25;;;;;;;;;;;;;;;-144.99;100.00;52660.09;5089865;28;20004;-60
2021/12/12 06:36:53;;;;;;;;;;;;;;;-144.99;100.00;52627.47;5118966;22;19996;-69
2021/12/12 06:39:22;;;;;;;;;;;;;;;-144.99;100.00;52651.94;5126476;27;20011;-69
2021/12/12 06:41:49;;;;;;;;;;;;;;;-144.99;100.00;52631.53;5131393;27;19979;-65
2021/12/12 06:44:16;;;;;;;;;;;;;;;-144.99;100.00;52676.38;5133004;27;20035;-66
2021/12/12 06:46:43;;;;;;;;;;;;;;;-144.99;100.00;52668.22;5142757;27;19984;-65
2021/12/12 06:49:11;;;;;;;;;;;;;;;-144.99;100.00;52676.38;5145198;27;20419;-65
2021/12/12 06:51:39;;;;;;;;;;;;;;;-144.99;100.00;52631.53;5142503;27;20015;-65
2021/12/12 06:54:07;;;;;;;;;;;;;;;-144.99;100.00;52651.94;5134255;27;20106;-65
2021/12/12 06:56:35;;;;;;;;;;;;;;;-144.99;100.00;52641.72;5134787;27;19991;-66
2021/12/12 06:59:02;;;;;;;;;;;;;;;-144.99;100.00;52643.78;5139439;27;20380;-66
2021/12/12 07:01:31;;;;;;;;;;;;;;;-144.99;100.00;52619.31;5137498;27;20005;-66
2021/12/12 07:03:57;;;;;;;;;;;;;;;-144.99;100.00;52637.66;5140965;27;19987;-66
2021/12/12 07:06:25;;;;;;;;;;;;;;;-144.99;100.00;52668.22;5152683;27;19978;-66
2021/12/12 07:08:51;;;;;;;;;;;;;;;-144.99;100.00;52662.13;5133842;27;19980;-66
2021/12/12 07:11:21;;;;;;;;;;;;;;;-144.99;100.00;52660.09;5134735;27;20090;-65
2021/12/12 07:13:49;;;;;;;;;;;;;;;-144.99;100.00;52656.00;5151363;27;20074;-64
2021/12/12 07:16:16;;;;;;;;;;;;;;;-144.99;100.00;52649.88;5138583;27;20015;-66
2021/12/12 07:18:42;;;;;;;;;;;;;;;-144.99;100.00;52643.78;5138090;27;20249;-66
2021/12/12 07:21:11;;;;;;;;;;;;;;;-144.99;100.00;52686.59;5148810;27;20404;-66
2021/12/12 07:23:38;;;;;;;;;;;;;;;-144.99;100.00;52647.84;5133968;27;20484;-66
2021/12/12 07:26:06;;;;;;;;;;;;;;;-144.99;100.00;52666.19;5147021;27;19968;-66
2021/12/12 07:28:35;;;;;;;;;;;;;;;-144.99;100.00;52627.47;5156284;27;20074;-62
2021/12/12 07:31:04;;;;;;;;;;;;;;;-144.99;100.00;52633.59;5154194;27;20030;-60
2021/12/12 07:33:31;;;;;;;;;;;;;;;-144.99;100.00;52623.38;5151778;27;19995;-61
2021/12/12 07:35:59;;;;;;;;;;;;;;;-144.99;100.00;52656.00;5164884;27;19994;-63
2021/12/12 07:38:27;;;;;;;;;;;;;;;-144.99;100.00;52656.00;5155640;27;20062;-62
2021/12/12 07:40:53;;;;;;;;;;;;;;;-144.99;100.00;52676.38;5140845;27;19971;-61
2021/12/12 07:43:21;;;;;;;;;;;;;;;-144.99;100.00;52596.88;5142465;27;20086;-67
2021/12/12 07:45:49;;;;;;;;;;;;;;;-144.99;100.00;52666.19;5150077;27;20389;-62
2021/12/12 07:48:16;;;;;;;;;;;;;;;-144.99;100.00;52635.63;5169826;27;19980;-61
2021/12/12 07:50:44;;;;;;;;;;;;;;;-144.99;100.00;52627.47;5166764;27;20073;-65
2021/12/12 07:53:11;;;;;;;;;;;;;;;-144.99;100.00;52623.38;5156091;27;19986;-72
2021/12/12 07:55:38;;;;;;;;;;;;;;;-144.99;100.00;52672.31;5162112;27;20034;-67
2021/12/12 07:58:05;;;;;;;;;;;;;;;-144.99;100.00;52649.88;5161564;27;20057;-64
2021/12/12 08:00:32;;;;;;;;;;;;;;;-144.99;100.00;52631.53;5152432;27;19979;-64
2021/12/12 08:03:00;;;;;;;;;;;;;;;-144.99;100.00;52617.28;5148260;27;20013;-64
2021/12/12 08:05:28;;;;;;;;;;;;;;;-144.99;100.00;52666.19;5138797;27;20090;-64
2021/12/12 08:07:56;;;;;;;;;;;;;;;-144.99;100.00;52627.47;5138914;27;20421;-64
2021/12/12 08:10:23;;;;;;;;;;;;;;;-144.99;100.00;52643.78;5132054;27;20504;-64
2021/12/12 08:12:50;;;;;;;;;;;;;;;-144.99;100.00;52613.19;5133762;27;20039;-64
2021/12/12 08:15:17;;;;;;;;;;;;;;;-144.99;100.00;52627.47;5132939;27;19996;-64
2021/12/12 08:17:44;;;;;;;;;;;;;;;-144.99;100.00;52594.84;5147006;27;20029;-64
2021/12/12 08:20:13;;;;;;;;;;;;;;;-144.99;100.00;52615.25;5140428;27;20380;-63
2021/12/12 08:22:40;;;;;;;;;;;;;;;-144.99;100.00;52660.09;5137845;27;19980;-63
2021/12/12 08:25:08;;;;;;;;;;;;;;;-144.99;100.00;52668.22;5132279;27;20379;-64
2021/12/12 08:27:34;;;;;;;;;;;;;;;-144.99;100.00;52674.34;5133331;27;19980;-64
2021/12/12 08:30:01;;;;;;;;;;;;;;;-144.99;100.00;52643.78;5132997;27;19987;-63
2021/12/12 08:32:28;;;;;;;;;;;;;;;-144.99;100.00;52631.53;5132523;27;20089;-63
2021/12/12 08:34:54;;;;;;;;;;;;;;;-144.99;100.00;52643.78;5149045;27;20002;-63
2021/12/12 08:37:22;;;;;;;;;;;;;;;-144.99;100.00;52639.69;5146334;27;20417;-64
2021/12/12 08:39:49;;;;;;;;;;;;;;;-144.99;100.00;52619.31;5141661;27;20074;-63
2021/12/12 08:42:15;;;;;;;;;;;;;;;-144.99;100.00;52623.38;5146858;27;20455;-64
2021/12/12 08:44:42;;;;;;;;;;;;;;;-144.99;100.00;52619.31;5131992;27;20370;-64
2021/12/12 08:47:09;;;;;;;;;;;;;;;-144.99;100.00;52627.47;5132394;27;20217;-64
2021/12/12 08:49:37;;;;;;;;;;;;;;;-144.99;100.00;52690.66;5145288;27;20536;-64
2021/12/12 08:52:06;;;;;;;;;;;;;;;-144.99;100.00;52631.53;5136315;27;19984;-65
2021/12/12 08:54:36;;;;;;;;;;;;;;;-144.99;100.00;52631.53;5131283;27;20000;-64
2021/12/12 08:57:06;;;;;;;;;;;;;;;-144.99;100.00;52611.16;5132489;27;19987;-64
2021/12/12 08:59:34;;;;;;;;;;;;;;;-144.99;100.00;52662.13;5132697;27;20058;-65
2021/12/12 09:02:02;;;;;;;;;;;;;;;-144.99;100.00;52668.22;5132065;27;19986;-65
2021/12/12 09:04:29;;;;;;;;;;;;;;;-144.99;100.00;52615.25;5147176;27;19998;-64
2021/12/12 09:06:59;;;;;;;;;;;;;;;-144.99;100.00;52639.69;5141825;27;20070;-65
2021/12/12 09:09:29;;;;;;;;;;;;;;;-144.99;100.00;52613.19;5145552;27;20067;-65
2021/12/12 09:12:02;;;;;;;;;;;;;;;-144.99;100.00;52623.38;5140896;27;20072;-64
2021/12/12 09:14:31;;;;;;;;;;;;;;;-144.99;100.00;52656.00;5141813;27;19992;-65
2021/12/12 09:17:01;;;;;;;;;;;;;;;-144.99;100.00;52672.31;5140144;27;19980;-65
2021/12/12 09:19:30;;;;;;;;;;;;;;;-144.99;100.00;52649.88;5141465;27;19986;-65
2021/12/12 09:21:58;;;;;;;;;;;;;;;-144.99;100.00;52611.16;5145858;27;20273;-65
2021/12/12 09:24:32;;;;;;;;;;;;;;;-144.99;100.00;52660.09;5141143;27;20098;-64
2021/12/12 09:27:01;;;;;;;;;;;;;;;-144.99;100.00;52623.38;5145130;27;20066;-65
2021/12/12 09:29:32;;;;;;;;;;;;;;;-144.99;100.00;52639.69;5137829;27;19982;-65
2021/12/12 09:32:00;;;;;;;;;;;;;;;-144.99;100.00;52621.34;5140352;27;20181;-65
2021/12/12 09:34:31;;;;;;;;;;;;;;;-144.99;100.00;52598.94;5142769;27;19998;-65
2021/12/12 09:36:58;;;;;;;;;;;;;;;-144.99;100.00;52625.44;5144577;27;20527;-68
2021/12/12 09:39:27;;;;;;;;;;;;;;;-144.99;100.00;52668.22;5139872;27;20335;-69
2021/12/12 09:42:15;;;;;;;;;;;;;;;-144.99;100.00;52680.47;5149118;27;20292;-70
2021/12/12 09:44:54;;;;;;;;;;;;;;;-144.99;100.00;52639.69;5147861;27;20079;-70
2021/12/12 09:47:35;;;;;;;;;;;;;;;-144.99;100.00;52656.00;5145797;27;20026;-70
2021/12/12 09:53:11;;;;;;;;;;;;;;;-144.99;100.00;52611.16;5155085;27;19982;-71
2021/12/12 09:55:43;;;;;;;;;;;;;;;-144.99;100.00;52668.22;5122101;27;20059;-72
2021/12/12 09:58:15;;;;;;;;;;;;;;;-144.99;100.00;52619.31;5161429;27;19978;-72
2021/12/12 10:00:44;;;;;;;;;;;;;;;-144.99;100.00;52639.69;5164299;27;19979;-72
2021/12/12 10:03:17;;;;;;;;;;;;;;;-144.99;100.00;52643.78;5161451;27;19971;-71
2021/12/12 10:05:52;;;;;;;;;;;;;;;-144.99;100.00;52643.78;5162550;27;19980;-71
2021/12/12 10:08:26;;;;;;;;;;;;;;;-144.99;100.00;52627.47;5166442;27;19990;-72
2021/12/12 10:10:56;;;;;;;;;;;;;;;-144.99;100.00;52637.66;5159707;27;20050;-72
2021/12/12 10:13:29;;;;;;;;;;;;;;;-144.99;100.00;52676.38;5170411;27;20185;-72
2021/12/12 10:15:57;;;;;;;;;;;;;;;-144.99;100.00;52603.00;5157635;27;19992;-72
2021/12/12 10:18:29;;;;;;;;;;;;;;;-144.99;100.00;52668.22;4454626;27;10000674;-72
2021/12/12 10:21:01;;;;;;;;;;;;;;;-144.99;100.00;52627.47;5170380;27;20099;-72
2021/12/12 10:23:36;;;;;;;;;;;;;;;-144.99;100.00;52623.38;5150090;27;20004;-72
2021/12/12 10:26:05;;;;;;;;;;;;;;;-144.99;100.00;52611.16;5148330;27;20038;-72
2021/12/12 10:28:35;;;;;;;;;;;;;;;-144.99;100.00;52603.00;5150206;27;20070;-72
2021/12/12 10:31:03;;;;;;;;;;;;;;;-144.99;100.00;52649.88;5151893;27;19983;-72
2021/12/12 10:33:33;;;;;;;;;;;;;;;-144.99;100.00;52641.72;5146076;27;20031;-72
2021/12/12 10:36:03;;;;;;;;;;;;;;;-144.99;100.00;52631.53;5136224;27;20006;-72
2021/12/12 10:38:32;;;;;;;;;;;;;;;-144.99;100.00;52680.47;5151437;27;19975;-73
2021/12/12 10:41:03;;;;;;;;;;;;;;;-144.99;100.00;52643.78;5133936;27;20058;-74
2021/12/12 10:43:35;;;;;;;;;;;;;;;-144.99;100.00;52643.78;5138703;27;20039;-72
2021/12/12 10:46:04;;;;;;;;;;;;;;;-144.99;100.00;52631.53;5131426;27;19984;-72
2021/12/12 10:48:33;;;;;;;;;;;;;;;-144.99;100.00;52621.34;5130769;27;19983;-72
2021/12/12 10:51:03;;;;;;;;;;;;;;;-144.99;100.00;52643.78;5131242;27;19984;-72
2021/12/12 10:53:34;;;;;;;;;;;;;;;-144.99;100.00;52651.94;5130469;27;19997;-73
2021/12/12 10:56:04;;;;;;;;;;;;;;;-144.99;100.00;52643.78;5130929;27;19999;-72
2021/12/12 10:58:34;;;;;;;;;;;;;;;-144.99;100.00;52623.38;5131701;27;19980;-72
2021/12/12 11:01:05;;;;;;;;;;;;;;;-144.99;100.00;52631.53;5130709;27;20299;-74
2021/12/12 11:03:34;;;;;;;;;;;;;;;-144.99;100.00;52637.66;5130261;27;19999;-73
2021/12/12 11:06:02;;;;;;;;;;;;;;;-144.99;100.00;52633.59;5133496;27;19976;-73
2021/12/12 11:08:32;;;;;;;;;;;;;;;-144.99;100.00;52645.81;5154917;27;20010;-74
2021/12/12 11:11:00;;;;;;;;;;;;;;;-144.99;100.00;52631.53;5158711;27;19987;-74
2021/12/12 11:13:29;;;;;;;;;;;;;;;-144.99;100.00;52619.31;5168413;27;20063;-73
2021/12/12 11:16:01;;;;;;;;;;;;;;;-144.99;100.00;52594.84;5167767;27;20181;-73
2021/12/12 11:18:31;;;;;;;;;;;;;;;-144.99;100.00;52631.53;5155581;27;20090;-73
2021/12/12 11:21:05;;;;;;;;;;;;;;;-144.99;100.00;52611.16;5138248;27;19982;-73
2021/12/12 11:23:34;;;;;;;;;;;;;;;-144.99;100.00;52647.84;5134296;27;19995;-73
2021/12/12 11:26:02;;;;;;;;;;;;;;;-144.99;100.00;52639.69;5140232;27;20523;-73
2021/12/12 11:28:30;;;;;;;;;;;;;;;-144.99;100.00;52578.53;5147011;27;19984;-73
2021/12/12 11:30:58;;;;;;;;;;;;;;;-144.99;100.00;52596.88;5129653;27;19990;-73
2021/12/12 11:33:26;;;;;;;;;;;;;;;-144.99;100.00;52635.63;5131500;27;20041;-73
2021/12/12 11:35:56;;;;;;;;;;;;;;;-144.99;100.00;52627.47;5141717;27;19934;-73
2021/12/12 11:38:28;;;;;;;;;;;;;;;-144.99;100.00;52590.78;5144874;27;19990;-73
2021/12/12 11:40:57;;;;;;;;;;;;;;;-144.99;100.00;52615.25;5129821;27;19979;-73
2021/12/12 11:43:35;;;;;;;;;;;;;;;-144.99;100.00;52590.78;5131244;27;20099;-73
2021/12/12 11:46:05;;;;;;;;;;;;;;;-144.99;100.00;52598.94;5139892;27;19979;-73
2021/12/12 11:48:36;;;;;;;;;;;;;;;-144.99;100.00;52631.53;5133375;27;19976;-73
2021/12/12 11:51:06;;;;;;;;;;;;;;;-144.99;100.00;52598.94;5142703;27;19979;-73
2021/12/12 11:53:36;;;;;;;;;;;;;;;-144.99;100.00;52592.81;5144235;27;20347;-74
2021/12/12 11:56:05;;;;;;;;;;;;;;;-144.99;100.00;52552.03;5144171;27;19996;-73
2021/12/12 11:58:34;;;;;;;;;;;;;;;-144.99;100.00;52639.69;5143884;27;20355;-73
2021/12/12 12:01:05;;;;;;;;;;;;;;;-144.99;100.00;52631.53;5147935;27;20404;-73
2021/12/12 12:03:36;;;;;;;;;;;;;;;-144.99;100.00;52635.63;5148633;27;20494;-73
2021/12/12 12:06:12;;;;;;;;;;;;;;;-144.99;100.00;52670.28;5155227;27;20489;-73
2021/12/12 12:08:46;;;;;;;;;;;;;;;-144.99;100.00;52613.19;5153206;27;19989;-73
2021/12/12 12:11:20;;;;;;;;;;;;;;;-144.99;100.00;52631.53;5139261;27;19990;-74
2021/12/12 12:13:59;;;;;;;;;;;;;;;-144.99;100.00;52621.34;5143452;27;19991;-74
2021/12/12 12:16:36;;;;;;;;;;;;;;;-144.99;100.00;52627.47;5146986;27;19991;-73
2021/12/12 12:19:11;;;;;;;;;;;;;;;-144.99;100.00;52651.94;5135508;27;20021;-73
2021/12/12 12:21:42;;;;;;;;;;;;;;;-144.99;100.00;52611.16;5148127;27;20478;-73
2021/12/12 12:24:17;;;;;;;;;;;;;;;-144.99;100.00;52586.69;5150356;27;20535;-73
2021/12/12 12:26:55;;;;;;;;;;;;;;;-144.99;100.00;52647.84;5142782;27;20481;-73
2021/12/12 12:29:52;;;;;;;;;;;;;;;-144.99;100.00;52611.16;5144498;27;20011;-74
2021/12/12 12:32:37;;;;;;;;;;;;;;;-144.99;100.00;52627.47;5134464;27;20062;-74
2021/12/12 12:35:24;;;;;;;;;;;;;;;-144.99;100.00;52656.00;5148239;27;20094;-73
2021/12/12 12:38:09;;;;;;;;;;;;;;;-144.99;100.00;52643.78;5161942;27;20450;-74
2021/12/12 12:40:54;;;;;;;;;;;;;;;-144.99;100.00;52625.44;5133432;27;19983;-74
2021/12/12 12:43:50;;;;;;;;;;;;;;;-144.99;100.00;52635.63;5142235;27;19991;-74
2021/12/12 12:46:34;;;;;;;;;;;;;;;-144.99;100.00;52623.38;5068475;28;20133;-73
2021/12/12 12:49:19;;;;;;;;;;;;;;;-144.99;100.00;52615.25;5103684;27;19990;-74